sensor_id;sensor_type;location;lat;lon;timestamp;P1;durP1;ratioP1;P2;durP2;ratioP2
62633;SDS011;48704;50.534;6.442;2022-10-16T00:02:16;5.13;;;2.97;;
62633;SDS011;48704;50.534;6.442;2022-10-16T00:04:42;4.28;;;3.15;;
62633;SDS011;48704;50.534;6.442;2022-10-16T00:07:07;3.95;;;3.17;;
62633;SDS011;48704;50.534;6.442;2022-10-16T00:09:32;5.05;;;3.40;;
62633;SDS011;48704;50.534;6.442;2022-10-16T00:11:58;4.45;;;3.17;;
62633;SDS011;48704;50.534;6.442;2022-10-16T00:14:23;4.25;;;3.10;;
62633;SDS011;48704;50.534;6.442;2022-10-16T00:16:48;5.97;;;3.15;;
62633;SDS011;48704;50.534;6.442;2022-10-16T00:19:13;5.38;;;3.28;;
62633;SDS011;48704;50.534;6.442;2022-10-16T00:21:39;4.32;;;2.90;;
62633;SDS011;48704;50.534;6.442;2022-10-16T00:24:06;4.45;;;2.95;;
62633;SDS011;48704;50.534;6.442;2022-10-16T00:26:36;3.88;;;2.55;;
62633;SDS011;48704;50.534;6.442;2022-10-16T00:29:02;4.72;;;3.05;;
62633;SDS011;48704;50.534;6.442;2022-10-16T00:31:28;5.15;;;2.80;;
62633;SDS011;48704;50.534;6.442;2022-10-16T00:33:55;4.70;;;2.70;;
62633;SDS011;48704;50.534;6.442;2022-10-16T00:36:21;4.10;;;2.85;;
62633;SDS011;48704;50.534;6.442;2022-10-16T00:38:52;3.67;;;2.35;;
62633;SDS011;48704;50.534;6.442;2022-10-16T00:41:19;4.38;;;2.60;;
62633;SDS011;48704;50.534;6.442;2022-10-16T00:43:47;4.75;;;2.42;;
62633;SDS011;48704;50.534;6.442;2022-10-16T00:46:22;3.63;;;2.10;;
62633;SDS011;48704;50.534;6.442;2022-10-16T00:48:51;3.25;;;2.00;;
62633;SDS011;48704;50.534;6.442;2022-10-16T00:51:23;3.17;;;1.90;;
62633;SDS011;48704;50.534;6.442;2022-10-16T00:53:52;5.47;;;1.80;;
62633;SDS011;48704;50.534;6.442;2022-10-16T00:56:17;3.97;;;2.35;;
62633;SDS011;48704;50.534;6.442;2022-10-16T00:58:43;2.50;;;1.65;;
62633;SDS011;48704;50.534;6.442;2022-10-16T01:01:09;2.88;;;1.30;;
62633;SDS011;48704;50.534;6.442;2022-10-16T01:03:35;2.55;;;1.42;;
62633;SDS011;48704;50.534;6.442;2022-10-16T01:09:00;2.88;;;1.42;;
62633;SDS011;48704;50.534;6.442;2022-10-16T01:14:00;2.75;;;1.38;;
62633;SDS011;48704;50.534;6.442;2022-10-16T01:16:41;2.65;;;1.30;;
62633;SDS011;48704;50.534;6.442;2022-10-16T01:19:16;3.42;;;1.10;;
62633;SDS011;48704;50.534;6.442;2022-10-16T01:21:51;3.55;;;1.50;;
62633;SDS011;48704;50.534;6.442;2022-10-16T01:26:57;1.60;;;1.05;;
62633;SDS011;48704;50.534;6.442;2022-10-16T01:32:30;2.60;;;1.17;;
62633;SDS011;48704;50.534;6.442;2022-10-16T01:35:03;1.73;;;1.05;;
62633;SDS011;48704;50.534;6.442;2022-10-16T01:37:40;4.25;;;1.02;;
62633;SDS011;48704;50.534;6.442;2022-10-16T01:40:09;2.13;;;0.80;;
62633;SDS011;48704;50.534;6.442;2022-10-16T01:42:39;2.78;;;1.45;;
62633;SDS011;48704;50.534;6.442;2022-10-16T01:45:15;3.95;;;1.13;;
62633;SDS011;48704;50.534;6.442;2022-10-16T01:47:44;3.22;;;1.20;;
62633;SDS011;48704;50.534;6.442;2022-10-16T01:50:11;2.15;;;1.17;;
62633;SDS011;48704;50.534;6.442;2022-10-16T01:52:40;3.30;;;1.10;;
62633;SDS011;48704;50.534;6.442;2022-10-16T01:55:09;1.92;;;1.13;;
62633;SDS011;48704;50.534;6.442;2022-10-16T01:57:37;2.10;;;1.08;;
62633;SDS011;48704;50.534;6.442;2022-10-16T02:00:09;2.05;;;1.25;;
62633;SDS011;48704;50.534;6.442;2022-10-16T02:02:38;2.55;;;1.27;;
62633;SDS011;48704;50.534;6.442;2022-10-16T02:07:56;4.38;;;1.20;;
62633;SDS011;48704;50.534;6.442;2022-10-16T02:10:21;2.45;;;1.30;;
62633;SDS011;48704;50.534;6.442;2022-10-16T02:12:55;4.43;;;1.30;;
62633;SDS011;48704;50.534;6.442;2022-10-16T02:15:24;3.90;;;1.30;;
62633;SDS011;48704;50.534;6.442;2022-10-16T02:17:49;2.35;;;1.25;;
62633;SDS011;48704;50.534;6.442;2022-10-16T02:20:14;5.22;;;1.40;;
62633;SDS011;48704;50.534;6.442;2022-10-16T02:22:42;2.60;;;1.40;;
62633;SDS011;48704;50.534;6.442;2022-10-16T02:25:19;2.40;;;1.25;;
62633;SDS011;48704;50.534;6.442;2022-10-16T02:30:38;2.50;;;1.70;;
62633;SDS011;48704;50.534;6.442;2022-10-16T02:33:09;5.13;;;2.38;;
62633;SDS011;48704;50.534;6.442;2022-10-16T02:35:38;6.00;;;2.65;;
62633;SDS011;48704;50.534;6.442;2022-10-16T02:38:06;3.53;;;2.15;;
62633;SDS011;48704;50.534;6.442;2022-10-16T02:40:33;3.17;;;2.22;;
62633;SDS011;48704;50.534;6.442;2022-10-16T02:42:59;4.93;;;2.33;;
62633;SDS011;48704;50.534;6.442;2022-10-16T02:45:25;3.85;;;2.85;;
62633;SDS011;48704;50.534;6.442;2022-10-16T02:47:50;4.30;;;2.83;;
62633;SDS011;48704;50.534;6.442;2022-10-16T02:50:16;3.40;;;2.25;;
62633;SDS011;48704;50.534;6.442;2022-10-16T02:52:41;4.53;;;3.30;;
62633;SDS011;48704;50.534;6.442;2022-10-16T02:55:07;4.00;;;3.00;;
62633;SDS011;48704;50.534;6.442;2022-10-16T02:57:32;5.68;;;2.83;;
62633;SDS011;48704;50.534;6.442;2022-10-16T02:59:58;5.20;;;3.00;;
62633;SDS011;48704;50.534;6.442;2022-10-16T03:02:23;3.58;;;2.55;;
62633;SDS011;48704;50.534;6.442;2022-10-16T03:04:49;5.30;;;2.70;;
62633;SDS011;48704;50.534;6.442;2022-10-16T03:07:14;4.45;;;2.50;;
62633;SDS011;48704;50.534;6.442;2022-10-16T03:09:39;4.43;;;3.00;;
62633;SDS011;48704;50.534;6.442;2022-10-16T03:12:05;5.78;;;3.00;;
62633;SDS011;48704;50.534;6.442;2022-10-16T03:14:31;5.28;;;3.10;;
62633;SDS011;48704;50.534;6.442;2022-10-16T03:16:56;5.45;;;2.90;;
62633;SDS011;48704;50.534;6.442;2022-10-16T03:19:21;5.30;;;3.03;;
62633;SDS011;48704;50.534;6.442;2022-10-16T03:21:47;4.65;;;2.47;;
62633;SDS011;48704;50.534;6.442;2022-10-16T03:24:12;3.50;;;2.35;;
62633;SDS011;48704;50.534;6.442;2022-10-16T03:26:37;4.50;;;3.13;;
62633;SDS011;48704;50.534;6.442;2022-10-16T03:29:03;4.55;;;2.67;;
62633;SDS011;48704;50.534;6.442;2022-10-16T03:31:29;3.88;;;2.50;;
62633;SDS011;48704;50.534;6.442;2022-10-16T03:33:55;5.10;;;3.22;;
62633;SDS011;48704;50.534;6.442;2022-10-16T03:36:20;4.32;;;2.83;;
62633;SDS011;48704;50.534;6.442;2022-10-16T03:38:45;5.05;;;2.70;;
62633;SDS011;48704;50.534;6.442;2022-10-16T03:41:11;4.10;;;2.47;;
62633;SDS011;48704;50.534;6.442;2022-10-16T03:43:36;4.15;;;2.97;;
62633;SDS011;48704;50.534;6.442;2022-10-16T03:46:01;3.67;;;2.40;;
62633;SDS011;48704;50.534;6.442;2022-10-16T03:48:27;3.03;;;1.98;;
62633;SDS011;48704;50.534;6.442;2022-10-16T03:50:52;3.75;;;2.78;;
62633;SDS011;48704;50.534;6.442;2022-10-16T03:53:18;3.28;;;2.08;;
62633;SDS011;48704;50.534;6.442;2022-10-16T03:55:43;4.40;;;2.50;;
62633;SDS011;48704;50.534;6.442;2022-10-16T03:58:09;3.05;;;1.90;;
62633;SDS011;48704;50.534;6.442;2022-10-16T04:00:35;5.70;;;2.30;;
62633;SDS011;48704;50.534;6.442;2022-10-16T04:03:00;3.50;;;2.30;;
62633;SDS011;48704;50.534;6.442;2022-10-16T04:05:26;3.97;;;2.03;;
62633;SDS011;48704;50.534;6.442;2022-10-16T04:07:51;3.72;;;2.28;;
62633;SDS011;48704;50.534;6.442;2022-10-16T04:10:17;3.55;;;2.10;;
62633;SDS011;48704;50.534;6.442;2022-10-16T04:12:42;3.20;;;1.92;;
62633;SDS011;48704;50.534;6.442;2022-10-16T04:15:07;7.78;;;2.42;;
62633;SDS011;48704;50.534;6.442;2022-10-16T04:17:33;4.25;;;1.92;;
62633;SDS011;48704;50.534;6.442;2022-10-16T04:19:58;5.40;;;2.10;;
62633;SDS011;48704;50.534;6.442;2022-10-16T04:22:24;4.20;;;2.03;;
62633;SDS011;48704;50.534;6.442;2022-10-16T04:24:49;3.22;;;1.67;;
62633;SDS011;48704;50.534;6.442;2022-10-16T04:27:14;3.03;;;1.60;;
62633;SDS011;48704;50.534;6.442;2022-10-16T04:29:39;3.72;;;1.67;;
62633;SDS011;48704;50.534;6.442;2022-10-16T04:32:05;2.58;;;1.30;;
62633;SDS011;48704;50.534;6.442;2022-10-16T04:34:30;4.20;;;1.50;;
62633;SDS011;48704;50.534;6.442;2022-10-16T04:36:55;3.22;;;2.00;;
62633;SDS011;48704;50.534;6.442;2022-10-16T04:39:21;2.33;;;1.50;;
62633;SDS011;48704;50.534;6.442;2022-10-16T04:41:46;3.72;;;1.67;;
62633;SDS011;48704;50.534;6.442;2022-10-16T04:44:11;4.93;;;1.70;;
62633;SDS011;48704;50.534;6.442;2022-10-16T04:46:36;3.10;;;1.50;;
62633;SDS011;48704;50.534;6.442;2022-10-16T04:49:02;2.80;;;1.60;;
62633;SDS011;48704;50.534;6.442;2022-10-16T04:51:27;2.67;;;1.50;;
62633;SDS011;48704;50.534;6.442;2022-10-16T04:53:53;4.43;;;1.50;;
62633;SDS011;48704;50.534;6.442;2022-10-16T04:56:19;2.45;;;1.40;;
62633;SDS011;48704;50.534;6.442;2022-10-16T04:58:46;3.20;;;1.25;;
62633;SDS011;48704;50.534;6.442;2022-10-16T05:01:11;3.38;;;1.40;;
62633;SDS011;48704;50.534;6.442;2022-10-16T05:03:37;3.47;;;1.75;;
62633;SDS011;48704;50.534;6.442;2022-10-16T05:06:04;2.92;;;1.55;;
62633;SDS011;48704;50.534;6.442;2022-10-16T05:08:30;3.58;;;1.30;;
62633;SDS011;48704;50.534;6.442;2022-10-16T05:10:55;2.50;;;1.55;;
62633;SDS011;48704;50.534;6.442;2022-10-16T05:13:21;4.55;;;1.55;;
62633;SDS011;48704;50.534;6.442;2022-10-16T05:15:46;3.55;;;1.77;;
62633;SDS011;48704;50.534;6.442;2022-10-16T05:18:13;1.70;;;1.13;;
62633;SDS011;48704;50.534;6.442;2022-10-16T05:20:38;2.50;;;1.27;;
62633;SDS011;48704;50.534;6.442;2022-10-16T05:23:03;2.00;;;1.25;;
62633;SDS011;48704;50.534;6.442;2022-10-16T05:25:29;4.45;;;1.75;;
62633;SDS011;48704;50.534;6.442;2022-10-16T05:27:54;2.90;;;1.45;;
62633;SDS011;48704;50.534;6.442;2022-10-16T05:30:19;3.13;;;1.60;;
62633;SDS011;48704;50.534;6.442;2022-10-16T05:32:48;2.55;;;1.48;;
62633;SDS011;48704;50.534;6.442;2022-10-16T05:35:14;3.97;;;1.80;;
62633;SDS011;48704;50.534;6.442;2022-10-16T05:37:41;2.42;;;1.58;;
62633;SDS011;48704;50.534;6.442;2022-10-16T05:40:06;2.45;;;1.38;;
62633;SDS011;48704;50.534;6.442;2022-10-16T05:42:32;2.65;;;1.50;;
62633;SDS011;48704;50.534;6.442;2022-10-16T05:44:57;2.20;;;1.30;;
62633;SDS011;48704;50.534;6.442;2022-10-16T05:47:22;2.63;;;1.50;;
62633;SDS011;48704;50.534;6.442;2022-10-16T05:49:48;4.05;;;1.50;;
62633;SDS011;48704;50.534;6.442;2022-10-16T05:52:13;5.45;;;1.50;;
62633;SDS011;48704;50.534;6.442;2022-10-16T05:54:38;2.67;;;1.35;;
62633;SDS011;48704;50.534;6.442;2022-10-16T05:57:04;1.98;;;1.20;;
62633;SDS011;48704;50.534;6.442;2022-10-16T05:59:30;3.75;;;1.55;;
62633;SDS011;48704;50.534;6.442;2022-10-16T06:01:56;2.53;;;1.42;;
62633;SDS011;48704;50.534;6.442;2022-10-16T06:04:21;2.90;;;1.38;;
62633;SDS011;48704;50.534;6.442;2022-10-16T06:06:47;2.78;;;1.50;;
62633;SDS011;48704;50.534;6.442;2022-10-16T06:09:12;2.38;;;1.35;;
62633;SDS011;48704;50.534;6.442;2022-10-16T06:11:37;2.65;;;1.33;;
62633;SDS011;48704;50.534;6.442;2022-10-16T06:14:03;3.20;;;1.48;;
62633;SDS011;48704;50.534;6.442;2022-10-16T06:16:31;4.60;;;2.30;;
62633;SDS011;48704;50.534;6.442;2022-10-16T06:19:01;3.33;;;1.65;;
62633;SDS011;48704;50.534;6.442;2022-10-16T06:21:27;2.85;;;1.50;;
62633;SDS011;48704;50.534;6.442;2022-10-16T06:23:53;3.63;;;1.80;;
62633;SDS011;48704;50.534;6.442;2022-10-16T06:26:20;3.00;;;1.48;;
62633;SDS011;48704;50.534;6.442;2022-10-16T06:28:47;2.70;;;1.10;;
62633;SDS011;48704;50.534;6.442;2022-10-16T06:31:13;3.20;;;1.95;;
62633;SDS011;48704;50.534;6.442;2022-10-16T06:33:39;6.40;;;1.70;;
62633;SDS011;48704;50.534;6.442;2022-10-16T06:36:06;2.20;;;1.20;;
62633;SDS011;48704;50.534;6.442;2022-10-16T06:38:33;2.80;;;1.38;;
62633;SDS011;48704;50.534;6.442;2022-10-16T06:40:59;5.25;;;2.00;;
62633;SDS011;48704;50.534;6.442;2022-10-16T06:43:24;4.05;;;1.50;;
62633;SDS011;48704;50.534;6.442;2022-10-16T06:45:53;4.13;;;1.45;;
62633;SDS011;48704;50.534;6.442;2022-10-16T06:48:19;3.42;;;1.75;;
62633;SDS011;48704;50.534;6.442;2022-10-16T06:50:55;2.47;;;1.10;;
62633;SDS011;48704;50.534;6.442;2022-10-16T06:53:39;3.72;;;1.30;;
62633;SDS011;48704;50.534;6.442;2022-10-16T06:56:09;4.60;;;1.30;;
62633;SDS011;48704;50.534;6.442;2022-10-16T06:58:36;1.83;;;1.10;;
62633;SDS011;48704;50.534;6.442;2022-10-16T07:01:02;3.80;;;1.23;;
62633;SDS011;48704;50.534;6.442;2022-10-16T07:03:28;2.00;;;1.05;;
62633;SDS011;48704;50.534;6.442;2022-10-16T07:05:53;2.78;;;1.38;;
62633;SDS011;48704;50.534;6.442;2022-10-16T07:08:18;2.22;;;1.20;;
62633;SDS011;48704;50.534;6.442;2022-10-16T07:10:43;3.05;;;1.27;;
62633;SDS011;48704;50.534;6.442;2022-10-16T07:13:09;2.05;;;1.25;;
62633;SDS011;48704;50.534;6.442;2022-10-16T07:15:38;2.30;;;1.17;;
62633;SDS011;48704;50.534;6.442;2022-10-16T07:18:03;3.75;;;1.00;;
62633;SDS011;48704;50.534;6.442;2022-10-16T07:20:28;3.03;;;1.30;;
62633;SDS011;48704;50.534;6.442;2022-10-16T07:22:54;1.90;;;0.88;;
62633;SDS011;48704;50.534;6.442;2022-10-16T07:25:19;2.88;;;1.00;;
62633;SDS011;48704;50.534;6.442;2022-10-16T07:27:44;2.38;;;0.90;;
62633;SDS011;48704;50.534;6.442;2022-10-16T07:30:10;2.75;;;1.38;;
62633;SDS011;48704;50.534;6.442;2022-10-16T07:32:35;4.38;;;1.40;;
62633;SDS011;48704;50.534;6.442;2022-10-16T07:35:01;1.80;;;1.00;;
62633;SDS011;48704;50.534;6.442;2022-10-16T07:37:26;1.88;;;1.10;;
62633;SDS011;48704;50.534;6.442;2022-10-16T07:39:51;1.92;;;0.95;;
62633;SDS011;48704;50.534;6.442;2022-10-16T07:42:17;2.40;;;0.90;;
62633;SDS011;48704;50.534;6.442;2022-10-16T07:44:42;2.40;;;1.00;;
62633;SDS011;48704;50.534;6.442;2022-10-16T07:47:07;1.95;;;1.02;;
62633;SDS011;48704;50.534;6.442;2022-10-16T07:49:38;2.13;;;1.13;;
62633;SDS011;48704;50.534;6.442;2022-10-16T07:52:04;1.52;;;0.80;;
62633;SDS011;48704;50.534;6.442;2022-10-16T07:54:29;2.33;;;1.02;;
62633;SDS011;48704;50.534;6.442;2022-10-16T07:56:54;1.67;;;1.00;;
62633;SDS011;48704;50.534;6.442;2022-10-16T07:59:20;2.22;;;1.33;;
62633;SDS011;48704;50.534;6.442;2022-10-16T08:01:45;2.60;;;1.10;;
62633;SDS011;48704;50.534;6.442;2022-10-16T08:04:10;3.80;;;1.35;;
62633;SDS011;48704;50.534;6.442;2022-10-16T08:06:36;3.35;;;1.20;;
62633;SDS011;48704;50.534;6.442;2022-10-16T08:09:05;1.98;;;1.10;;
62633;SDS011;48704;50.534;6.442;2022-10-16T08:11:31;1.60;;;1.00;;
62633;SDS011;48704;50.534;6.442;2022-10-16T08:13:56;2.78;;;1.10;;
62633;SDS011;48704;50.534;6.442;2022-10-16T08:16:21;2.08;;;1.10;;
62633;SDS011;48704;50.534;6.442;2022-10-16T08:18:47;2.88;;;0.80;;
62633;SDS011;48704;50.534;6.442;2022-10-16T08:21:14;2.10;;;1.00;;
62633;SDS011;48704;50.534;6.442;2022-10-16T08:23:40;2.30;;;1.10;;
62633;SDS011;48704;50.534;6.442;2022-10-16T08:26:07;3.05;;;1.10;;
62633;SDS011;48704;50.534;6.442;2022-10-16T08:28:33;4.25;;;1.23;;
62633;SDS011;48704;50.534;6.442;2022-10-16T08:31:14;2.45;;;0.90;;
62633;SDS011;48704;50.534;6.442;2022-10-16T08:33:41;1.70;;;0.90;;
62633;SDS011;48704;50.534;6.442;2022-10-16T08:36:09;2.75;;;1.00;;
62633;SDS011;48704;50.534;6.442;2022-10-16T08:38:36;2.45;;;0.80;;
62633;SDS011;48704;50.534;6.442;2022-10-16T08:41:20;2.95;;;0.80;;
62633;SDS011;48704;50.534;6.442;2022-10-16T08:43:58;2.47;;;1.00;;
62633;SDS011;48704;50.534;6.442;2022-10-16T08:49:37;5.40;;;1.13;;
62633;SDS011;48704;50.534;6.442;2022-10-16T08:52:10;1.85;;;1.10;;
62633;SDS011;48704;50.534;6.442;2022-10-16T08:54:41;2.42;;;1.00;;
62633;SDS011;48704;50.534;6.442;2022-10-16T08:57:30;2.63;;;0.90;;
62633;SDS011;48704;50.534;6.442;2022-10-16T08:59:57;3.22;;;0.85;;
62633;SDS011;48704;50.534;6.442;2022-10-16T09:02:50;1.73;;;0.80;;
62633;SDS011;48704;50.534;6.442;2022-10-16T09:08:35;1.65;;;0.80;;
62633;SDS011;48704;50.534;6.442;2022-10-16T09:11:14;1.38;;;0.70;;
62633;SDS011;48704;50.534;6.442;2022-10-16T09:13:51;1.58;;;0.90;;
62633;SDS011;48704;50.534;6.442;2022-10-16T09:16:30;2.42;;;0.80;;
62633;SDS011;48704;50.534;6.442;2022-10-16T09:19:04;2.17;;;0.90;;
62633;SDS011;48704;50.534;6.442;2022-10-16T09:21:41;3.33;;;0.65;;
62633;SDS011;48704;50.534;6.442;2022-10-16T09:24:13;3.03;;;0.80;;
62633;SDS011;48704;50.534;6.442;2022-10-16T09:26:40;2.95;;;0.90;;
62633;SDS011;48704;50.534;6.442;2022-10-16T09:29:06;1.00;;;0.70;;
62633;SDS011;48704;50.534;6.442;2022-10-16T09:31:35;3.40;;;0.80;;
62633;SDS011;48704;50.534;6.442;2022-10-16T09:34:02;1.40;;;0.82;;
62633;SDS011;48704;50.534;6.442;2022-10-16T09:36:31;1.30;;;0.70;;
62633;SDS011;48704;50.534;6.442;2022-10-16T09:39:06;2.67;;;0.70;;
62633;SDS011;48704;50.534;6.442;2022-10-16T09:41:34;2.50;;;0.70;;
62633;SDS011;48704;50.534;6.442;2022-10-16T09:44:02;3.50;;;1.00;;
62633;SDS011;48704;50.534;6.442;2022-10-16T09:46:31;1.80;;;0.80;;
62633;SDS011;48704;50.534;6.442;2022-10-16T09:49:49;6.40;;;0.95;;
62633;SDS011;48704;50.534;6.442;2022-10-16T09:51:51;2.40;;;0.90;;
62633;SDS011;48704;50.534;6.442;2022-10-16T09:54:27;1.27;;;0.77;;
62633;SDS011;48704;50.534;6.442;2022-10-16T09:56:52;1.63;;;0.90;;
62633;SDS011;48704;50.534;6.442;2022-10-16T09:59:32;3.33;;;1.05;;
62633;SDS011;48704;50.534;6.442;2022-10-16T10:02:01;1.95;;;0.95;;
62633;SDS011;48704;50.534;6.442;2022-10-16T10:04:37;2.10;;;0.90;;
62633;SDS011;48704;50.534;6.442;2022-10-16T10:07:06;2.08;;;0.90;;
62633;SDS011;48704;50.534;6.442;2022-10-16T10:09:43;1.67;;;1.00;;
62633;SDS011;48704;50.534;6.442;2022-10-16T10:12:20;1.70;;;1.00;;
62633;SDS011;48704;50.534;6.442;2022-10-16T10:14:55;2.47;;;1.20;;
62633;SDS011;48704;50.534;6.442;2022-10-16T10:17:26;1.55;;;0.80;;
62633;SDS011;48704;50.534;6.442;2022-10-16T10:19:57;2.13;;;0.70;;
62633;SDS011;48704;50.534;6.442;2022-10-16T10:22:45;1.45;;;0.65;;
62633;SDS011;48704;50.534;6.442;2022-10-16T10:30:48;1.60;;;0.65;;
62633;SDS011;48704;50.534;6.442;2022-10-16T10:36:35;1.42;;;0.70;;
62633;SDS011;48704;50.534;6.442;2022-10-16T10:55:45;1.73;;;0.98;;
62633;SDS011;48704;50.534;6.442;2022-10-16T10:59:15;2.78;;;0.70;;
62633;SDS011;48704;50.534;6.442;2022-10-16T11:01:13;1.95;;;0.70;;
62633;SDS011;48704;50.534;6.442;2022-10-16T11:06:40;0.77;;;0.50;;
62633;SDS011;48704;50.534;6.442;2022-10-16T11:09:14;3.33;;;0.60;;
62633;SDS011;48704;50.534;6.442;2022-10-16T11:11:47;2.22;;;0.60;;
62633;SDS011;48704;50.534;6.442;2022-10-16T11:17:15;1.08;;;0.52;;
62633;SDS011;48704;50.534;6.442;2022-10-16T11:19:48;1.38;;;0.60;;
62633;SDS011;48704;50.534;6.442;2022-10-16T11:22:24;1.10;;;0.60;;
62633;SDS011;48704;50.534;6.442;2022-10-16T11:25:13;2.58;;;0.40;;
62633;SDS011;48704;50.534;6.442;2022-10-16T11:27:42;1.63;;;0.45;;
62633;SDS011;48704;50.534;6.442;2022-10-16T11:30:28;0.80;;;0.50;;
62633;SDS011;48704;50.534;6.442;2022-10-16T11:38:41;1.02;;;0.50;;
62633;SDS011;48704;50.534;6.442;2022-10-16T11:41:21;2.00;;;0.45;;
62633;SDS011;48704;50.534;6.442;2022-10-16T11:46:52;2.33;;;0.50;;
62633;SDS011;48704;50.534;6.442;2022-10-16T11:49:44;0.57;;;0.40;;
62633;SDS011;48704;50.534;6.442;2022-10-16T11:52:23;1.33;;;0.50;;
62633;SDS011;48704;50.534;6.442;2022-10-16T11:57:35;2.40;;;0.60;;
62633;SDS011;48704;50.534;6.442;2022-10-16T12:02:52;2.20;;;0.50;;
62633;SDS011;48704;50.534;6.442;2022-10-16T12:08:20;1.33;;;0.70;;
62633;SDS011;48704;50.534;6.442;2022-10-16T12:10:47;1.38;;;0.52;;
62633;SDS011;48704;50.534;6.442;2022-10-16T12:13:29;2.50;;;0.60;;
62633;SDS011;48704;50.534;6.442;2022-10-16T12:18:37;1.02;;;0.55;;
62633;SDS011;48704;50.534;6.442;2022-10-16T12:21:04;4.75;;;0.80;;
62633;SDS011;48704;50.534;6.442;2022-10-16T12:23:32;4.38;;;0.65;;
62633;SDS011;48704;50.534;6.442;2022-10-16T12:26:11;3.45;;;0.75;;
62633;SDS011;48704;50.534;6.442;2022-10-16T12:28:36;1.15;;;0.50;;
62633;SDS011;48704;50.534;6.442;2022-10-16T12:31:06;1.52;;;0.68;;
62633;SDS011;48704;50.534;6.442;2022-10-16T12:33:39;1.33;;;0.50;;
62633;SDS011;48704;50.534;6.442;2022-10-16T12:36:13;1.50;;;0.57;;
62633;SDS011;48704;50.534;6.442;2022-10-16T12:38:47;2.67;;;0.73;;
62633;SDS011;48704;50.534;6.442;2022-10-16T12:41:23;1.27;;;0.47;;
62633;SDS011;48704;50.534;6.442;2022-10-16T12:43:56;0.95;;;0.47;;
62633;SDS011;48704;50.534;6.442;2022-10-16T12:49:05;2.55;;;0.50;;
62633;SDS011;48704;50.534;6.442;2022-10-16T12:51:44;0.50;;;0.40;;
62633;SDS011;48704;50.534;6.442;2022-10-16T12:59:55;1.80;;;0.40;;
62633;SDS011;48704;50.534;6.442;2022-10-16T13:06:07;1.60;;;0.45;;
62633;SDS011;48704;50.534;6.442;2022-10-16T13:08:33;2.58;;;0.50;;
62633;SDS011;48704;50.534;6.442;2022-10-16T13:16:32;0.70;;;0.40;;
62633;SDS011;48704;50.534;6.442;2022-10-16T13:19:14;1.23;;;0.47;;
62633;SDS011;48704;50.534;6.442;2022-10-16T13:21:56;1.00;;;0.50;;
62633;SDS011;48704;50.534;6.442;2022-10-16T13:32:44;0.90;;;0.30;;
62633;SDS011;48704;50.534;6.442;2022-10-16T13:35:47;1.65;;;0.40;;
62633;SDS011;48704;50.534;6.442;2022-10-16T13:38:13;1.45;;;0.57;;
62633;SDS011;48704;50.534;6.442;2022-10-16T13:43:19;2.83;;;0.40;;
62633;SDS011;48704;50.534;6.442;2022-10-16T13:46:01;0.63;;;0.40;;
62633;SDS011;48704;50.534;6.442;2022-10-16T13:48:29;0.80;;;0.40;;
62633;SDS011;48704;50.534;6.442;2022-10-16T13:51:01;0.68;;;0.40;;
62633;SDS011;48704;50.534;6.442;2022-10-16T13:53:32;0.63;;;0.40;;
62633;SDS011;48704;50.534;6.442;2022-10-16T13:55:58;0.90;;;0.50;;
62633;SDS011;48704;50.534;6.442;2022-10-16T13:58:25;1.23;;;0.40;;
62633;SDS011;48704;50.534;6.442;2022-10-16T14:00:55;0.47;;;0.38;;
62633;SDS011;48704;50.534;6.442;2022-10-16T14:03:24;1.67;;;0.50;;
62633;SDS011;48704;50.534;6.442;2022-10-16T14:05:55;0.82;;;0.52;;
62633;SDS011;48704;50.534;6.442;2022-10-16T14:08:24;1.77;;;0.50;;
62633;SDS011;48704;50.534;6.442;2022-10-16T14:10:51;0.80;;;0.40;;
62633;SDS011;48704;50.534;6.442;2022-10-16T14:16:16;2.42;;;0.60;;
62633;SDS011;48704;50.534;6.442;2022-10-16T14:18:45;1.02;;;0.45;;
62633;SDS011;48704;50.534;6.442;2022-10-16T14:21:15;0.60;;;0.40;;
62633;SDS011;48704;50.534;6.442;2022-10-16T14:23:42;2.30;;;0.60;;
62633;SDS011;48704;50.534;6.442;2022-10-16T14:28:33;1.80;;;0.52;;
62633;SDS011;48704;50.534;6.442;2022-10-16T14:31:00;0.75;;;0.45;;
62633;SDS011;48704;50.534;6.442;2022-10-16T14:36:13;0.98;;;0.50;;
62633;SDS011;48704;50.534;6.442;2022-10-16T14:38:43;0.95;;;0.57;;
62633;SDS011;48704;50.534;6.442;2022-10-16T14:41:15;2.15;;;0.68;;
62633;SDS011;48704;50.534;6.442;2022-10-16T14:43:49;0.45;;;0.40;;
62633;SDS011;48704;50.534;6.442;2022-10-16T14:48:51;1.98;;;0.57;;
62633;SDS011;48704;50.534;6.442;2022-10-16T14:51:20;0.90;;;0.55;;
62633;SDS011;48704;50.534;6.442;2022-10-16T14:53:46;2.58;;;0.60;;
62633;SDS011;48704;50.534;6.442;2022-10-16T14:56:21;1.92;;;0.50;;
62633;SDS011;48704;50.534;6.442;2022-10-16T14:58:49;1.05;;;0.50;;
62633;SDS011;48704;50.534;6.442;2022-10-16T15:01:15;0.73;;;0.50;;
62633;SDS011;48704;50.534;6.442;2022-10-16T15:03:41;3.40;;;0.90;;
62633;SDS011;48704;50.534;6.442;2022-10-16T15:06:10;1.00;;;0.60;;
62633;SDS011;48704;50.534;6.442;2022-10-16T15:08:37;0.50;;;0.50;;
62633;SDS011;48704;50.534;6.442;2022-10-16T15:11:02;1.05;;;0.60;;
62633;SDS011;48704;50.534;6.442;2022-10-16T15:13:28;0.75;;;0.50;;
62633;SDS011;48704;50.534;6.442;2022-10-16T15:15:53;1.67;;;0.70;;
62633;SDS011;48704;50.534;6.442;2022-10-16T15:18:19;1.60;;;0.82;;
62633;SDS011;48704;50.534;6.442;2022-10-16T15:20:47;3.28;;;0.60;;
62633;SDS011;48704;50.534;6.442;2022-10-16T15:23:15;3.78;;;0.80;;
62633;SDS011;48704;50.534;6.442;2022-10-16T15:25:46;1.98;;;0.70;;
62633;SDS011;48704;50.534;6.442;2022-10-16T15:28:14;1.67;;;0.52;;
62633;SDS011;48704;50.534;6.442;2022-10-16T15:30:41;2.08;;;0.70;;
62633;SDS011;48704;50.534;6.442;2022-10-16T15:33:14;2.67;;;0.70;;
62633;SDS011;48704;50.534;6.442;2022-10-16T15:35:41;1.27;;;0.73;;
62633;SDS011;48704;50.534;6.442;2022-10-16T15:38:10;1.48;;;0.80;;
62633;SDS011;48704;50.534;6.442;2022-10-16T15:40:37;1.10;;;0.70;;
62633;SDS011;48704;50.534;6.442;2022-10-16T15:43:02;1.75;;;0.60;;
62633;SDS011;48704;50.534;6.442;2022-10-16T15:45:28;1.58;;;0.88;;
62633;SDS011;48704;50.534;6.442;2022-10-16T15:47:53;1.58;;;0.80;;
62633;SDS011;48704;50.534;6.442;2022-10-16T15:50:18;1.52;;;0.68;;
62633;SDS011;48704;50.534;6.442;2022-10-16T15:52:43;1.92;;;0.90;;
62633;SDS011;48704;50.534;6.442;2022-10-16T15:55:09;1.30;;;0.82;;
62633;SDS011;48704;50.534;6.442;2022-10-16T15:57:37;1.92;;;0.85;;
62633;SDS011;48704;50.534;6.442;2022-10-16T16:00:07;3.15;;;0.98;;
62633;SDS011;48704;50.534;6.442;2022-10-16T16:02:34;2.45;;;1.20;;
62633;SDS011;48704;50.534;6.442;2022-10-16T16:04:59;1.48;;;0.85;;
62633;SDS011;48704;50.534;6.442;2022-10-16T16:07:25;1.48;;;0.85;;
62633;SDS011;48704;50.534;6.442;2022-10-16T16:09:50;2.03;;;1.10;;
62633;SDS011;48704;50.534;6.442;2022-10-16T16:12:15;2.10;;;0.95;;
62633;SDS011;48704;50.534;6.442;2022-10-16T16:14:40;2.28;;;1.10;;
62633;SDS011;48704;50.534;6.442;2022-10-16T16:17:06;2.42;;;1.00;;
62633;SDS011;48704;50.534;6.442;2022-10-16T16:19:32;1.80;;;1.10;;
62633;SDS011;48704;50.534;6.442;2022-10-16T16:21:57;4.68;;;1.20;;
62633;SDS011;48704;50.534;6.442;2022-10-16T16:24:23;1.63;;;0.98;;
62633;SDS011;48704;50.534;6.442;2022-10-16T16:26:48;2.20;;;1.08;;
62633;SDS011;48704;50.534;6.442;2022-10-16T16:29:14;3.20;;;1.20;;
62633;SDS011;48704;50.534;6.442;2022-10-16T16:31:41;2.33;;;1.13;;
62633;SDS011;48704;50.534;6.442;2022-10-16T16:34:07;1.88;;;1.20;;
62633;SDS011;48704;50.534;6.442;2022-10-16T16:36:33;2.97;;;1.55;;
62633;SDS011;48704;50.534;6.442;2022-10-16T16:38:59;2.80;;;1.63;;
62633;SDS011;48704;50.534;6.442;2022-10-16T16:41:25;3.13;;;1.52;;
62633;SDS011;48704;50.534;6.442;2022-10-16T16:43:52;4.75;;;1.40;;
62633;SDS011;48704;50.534;6.442;2022-10-16T16:46:19;2.47;;;1.42;;
62633;SDS011;48704;50.534;6.442;2022-10-16T16:48:45;3.90;;;1.60;;
62633;SDS011;48704;50.534;6.442;2022-10-16T16:51:15;3.30;;;1.80;;